createdAt,value
2023-04-13T00:00:41.533Z,2.00
2023-04-13T00:03:12.364Z,1.48
2023-04-13T00:05:40.304Z,2.00
2023-04-13T00:08:08.005Z,2.00
2023-04-13T00:10:36.526Z,2.05
2023-04-13T00:13:08.020Z,1.50
2023-04-13T00:15:39.618Z,1.73
2023-04-13T00:18:10.706Z,1.42
2023-04-13T00:20:38.788Z,1.88
2023-04-13T00:23:05.772Z,1.35
2023-04-13T00:25:32.719Z,1.80
2023-04-13T00:28:03.855Z,1.70
2023-04-13T00:30:31.334Z,1.20
2023-04-13T00:32:58.346Z,1.58
2023-04-13T00:35:26.876Z,1.70
2023-04-13T00:37:54.284Z,1.10
2023-04-13T00:40:24.531Z,1.73
2023-04-13T00:42:52.074Z,2.00
2023-04-13T00:45:19.878Z,1.75
2023-04-13T00:47:48.724Z,1.75
2023-04-13T00:50:19.074Z,2.10
2023-04-13T00:52:47.245Z,2.10
2023-04-13T00:55:15.007Z,1.42
2023-04-13T00:57:42.119Z,2.20
2023-04-13T01:00:09.932Z,1.92
2023-04-13T01:02:41.963Z,1.80
2023-04-13T01:05:14.249Z,2.13
2023-04-13T01:08:07.721Z,2.40
2023-04-13T01:11:00.145Z,1.92
2023-04-13T01:13:52.791Z,2.40
2023-04-13T01:16:28.158Z,1.53
2023-04-13T01:18:56.566Z,2.45
2023-04-13T01:21:26.318Z,2.25
2023-04-13T01:24:05.281Z,1.98
2023-04-13T01:26:46.772Z,2.75
2023-04-13T01:29:14.194Z,2.83
2023-04-13T01:31:42.119Z,1.60
2023-04-13T01:34:09.816Z,2.33
2023-04-13T01:36:40.069Z,2.22
2023-04-13T01:39:07.509Z,1.50
2023-04-13T01:41:36.296Z,2.37
2023-04-13T01:44:04.206Z,1.15
2023-04-13T01:46:34.989Z,1.63
2023-04-13T01:49:24.986Z,1.35
2023-04-13T01:52:12.003Z,1.65
2023-04-13T01:54:43.604Z,1.77
2023-04-13T01:57:13.448Z,1.85
2023-04-13T01:59:40.779Z,1.17
2023-04-13T02:02:16.745Z,1.60
2023-04-13T02:04:44.057Z,1.77
2023-04-13T02:07:12.463Z,2.43
2023-04-13T02:09:45.319Z,2.00
2023-04-13T02:12:12.898Z,2.28
2023-04-13T02:14:40.701Z,1.88
2023-04-13T02:17:08.661Z,1.80
2023-04-13T02:19:35.574Z,2.50
2023-04-13T02:22:03.404Z,2.50
2023-04-13T02:24:30.435Z,2.35
2023-04-13T02:26:58.217Z,2.22
2023-04-13T02:29:25.108Z,2.38
2023-04-13T02:31:52.110Z,1.80
2023-04-13T02:34:19.282Z,2.60
2023-04-13T02:36:46.479Z,1.95
2023-04-13T02:39:13.386Z,2.25
2023-04-13T02:41:42.895Z,2.22
2023-04-13T02:44:13.721Z,2.40
2023-04-13T02:46:50.174Z,2.40
2023-04-13T02:49:18.044Z,2.35
2023-04-13T02:51:57.001Z,2.78
2023-04-13T02:54:37.287Z,2.13
2023-04-13T02:57:05.363Z,2.03
2023-04-13T02:59:35.706Z,2.20
2023-04-13T03:02:05.867Z,2.20
2023-04-13T03:04:33.982Z,1.85
2023-04-13T03:07:05.262Z,2.17
2023-04-13T03:09:33.268Z,2.10
2023-04-13T03:12:00.147Z,2.08
2023-04-13T03:14:33.208Z,1.55
2023-04-13T03:17:05.257Z,1.27
2023-04-13T03:19:37.783Z,1.58
2023-04-13T03:22:05.605Z,2.00
2023-04-13T03:24:36.068Z,2.25
2023-04-13T03:27:07.992Z,1.40
2023-04-13T03:29:40.663Z,2.13
2023-04-13T03:32:11.703Z,1.70
2023-04-13T03:34:44.568Z,1.53
2023-04-13T03:37:13.889Z,1.75
2023-04-13T03:39:41.466Z,2.55
2023-04-13T03:42:12.338Z,1.73
2023-04-13T03:44:45.277Z,2.10
2023-04-13T03:47:12.995Z,2.00
2023-04-13T03:49:39.945Z,2.20
2023-04-13T03:52:06.933Z,1.88
2023-04-13T03:54:40.477Z,1.90
2023-04-13T03:57:07.846Z,1.75
2023-04-13T03:59:35.590Z,2.17
2023-04-13T04:02:04.949Z,1.75
2023-04-13T04:04:35.148Z,1.65
2023-04-13T04:07:02.522Z,3.13
2023-04-13T04:09:29.721Z,2.03
2023-04-13T04:11:57.703Z,2.07
2023-04-13T04:14:36.911Z,1.45
2023-04-13T04:17:12.577Z,1.80
2023-04-13T04:19:39.785Z,1.70
2023-04-13T04:22:07.326Z,1.80
2023-04-13T04:24:38.701Z,1.77
2023-04-13T04:27:05.753Z,1.60
2023-04-13T04:29:36.083Z,1.70
2023-04-13T04:32:24.105Z,2.33
2023-04-13T04:34:53.132Z,1.63
2023-04-13T04:37:21.965Z,2.60
2023-04-13T04:40:16.197Z,2.45
2023-04-13T04:42:43.568Z,2.60
2023-04-13T04:45:18.682Z,2.75
2023-04-13T04:47:48.931Z,2.35
2023-04-13T04:50:20.409Z,1.80
2023-04-13T04:52:53.223Z,2.00
2023-04-13T04:55:23.465Z,2.17
2023-04-13T04:57:50.735Z,1.88
2023-04-13T05:00:20.462Z,2.45
2023-04-13T05:03:03.561Z,2.33
2023-04-13T05:05:30.825Z,2.90
2023-04-13T05:08:04.573Z,2.33
2023-04-13T05:10:33.025Z,2.33
2023-04-13T05:13:00.114Z,2.40
2023-04-13T05:15:28.263Z,2.53
2023-04-13T05:17:55.622Z,2.38
2023-04-13T05:20:23.609Z,1.95
2023-04-13T05:22:57.837Z,2.20
2023-04-13T05:25:25.237Z,2.03
2023-04-13T05:27:53.068Z,3.10
2023-04-13T05:30:20.388Z,2.85
2023-04-13T05:32:48.221Z,2.72
2023-04-13T05:35:15.168Z,1.75
2023-04-13T05:37:44.855Z,1.95
2023-04-13T05:40:18.579Z,2.43
2023-04-13T05:42:45.470Z,1.92
2023-04-13T05:45:17.073Z,2.40
2023-04-13T05:47:58.798Z,2.20
2023-04-13T05:50:25.733Z,2.65
2023-04-13T05:52:52.652Z,1.90
2023-04-13T05:55:20.787Z,1.65
2023-04-13T05:57:56.029Z,1.90
2023-04-13T06:00:23.298Z,2.53
2023-04-13T06:03:03.656Z,1.92
2023-04-13T06:05:32.795Z,1.67
2023-04-13T06:07:59.949Z,2.10
2023-04-13T06:10:26.855Z,3.08
2023-04-13T06:12:54.222Z,2.70
2023-04-13T06:15:21.834Z,2.67
2023-04-13T06:17:52.846Z,2.27
2023-04-13T06:20:21.643Z,4.05
2023-04-13T06:22:49.484Z,2.53
2023-04-13T06:25:19.695Z,2.03
2023-04-13T06:27:49.884Z,2.13
2023-04-13T06:30:18.159Z,1.97
2023-04-13T06:32:45.106Z,1.48
2023-04-13T06:35:15.487Z,1.75
2023-04-13T06:37:45.411Z,1.35
2023-04-13T06:40:17.322Z,2.15
2023-04-13T06:42:54.360Z,2.57
2023-04-13T06:45:37.619Z,2.28
2023-04-13T06:48:08.808Z,2.25
2023-04-13T06:50:37.971Z,2.67
2023-04-13T06:53:05.938Z,2.50
2023-04-13T06:55:33.038Z,2.27
2023-04-13T06:58:00.030Z,1.67
2023-04-13T07:00:30.050Z,2.28
2023-04-13T07:02:58.908Z,2.13
2023-04-13T07:05:26.820Z,1.98
2023-04-13T07:07:57.305Z,2.13
2023-04-13T07:10:24.824Z,2.65
2023-04-13T07:12:53.407Z,2.38
2023-04-13T07:15:23.243Z,2.70
2023-04-13T07:17:50.120Z,2.35
2023-04-13T07:20:20.130Z,2.50
2023-04-13T07:22:48.216Z,3.42
2023-04-13T07:25:15.406Z,2.92
2023-04-13T07:27:42.442Z,3.38
2023-04-13T07:30:09.668Z,3.67
2023-04-13T07:32:41.845Z,3.13
2023-04-13T07:35:10.029Z,3.05
2023-04-13T07:37:38.877Z,3.22
2023-04-13T07:40:11.999Z,3.40
2023-04-13T07:42:42.484Z,2.53
2023-04-13T07:45:11.008Z,3.40
2023-04-13T07:47:38.296Z,2.38
2023-04-13T07:50:09.991Z,2.85
2023-04-13T07:52:38.089Z,2.67
2023-04-13T07:55:06.245Z,2.92
2023-04-13T07:57:36.788Z,3.30
2023-04-13T08:00:06.387Z,3.45
2023-04-13T08:02:41.237Z,3.03
2023-04-13T08:05:12.532Z,4.03
2023-04-13T08:07:39.981Z,3.22
2023-04-13T08:10:10.841Z,2.37
2023-04-13T08:12:37.702Z,3.60
2023-04-13T08:15:05.483Z,2.95
2023-04-13T08:17:33.242Z,2.72
2023-04-13T08:20:00.858Z,3.47
2023-04-13T08:22:28.241Z,2.77
2023-04-13T08:24:55.309Z,4.18
2023-04-13T08:27:22.509Z,3.15
2023-04-13T08:29:55.894Z,3.33
2023-04-13T08:32:23.084Z,3.20
2023-04-13T08:34:51.517Z,3.47
2023-04-13T08:37:20.515Z,2.95
2023-04-13T08:39:48.438Z,3.08
2023-04-13T08:42:20.399Z,3.38
2023-04-13T08:44:48.326Z,4.28
2023-04-13T08:47:15.730Z,3.00
2023-04-13T08:49:46.985Z,2.70
2023-04-13T08:52:21.189Z,3.25
2023-04-13T08:54:51.543Z,2.80
2023-04-13T08:57:23.720Z,3.35
2023-04-13T08:59:54.771Z,3.23
2023-04-13T09:02:26.694Z,3.03
2023-04-13T09:05:00.793Z,2.50
2023-04-13T09:07:32.465Z,2.05
2023-04-13T09:10:05.972Z,4.07
2023-04-13T09:12:35.147Z,3.47
2023-04-13T09:15:05.439Z,3.33
2023-04-13T09:17:35.799Z,3.53
2023-04-13T09:20:18.652Z,2.45
2023-04-13T09:22:46.114Z,3.00
2023-04-13T09:25:29.965Z,2.80
2023-04-13T09:27:57.192Z,2.63
2023-04-13T09:30:25.699Z,2.63
2023-04-13T09:33:12.289Z,2.45
2023-04-13T09:35:39.826Z,2.53
2023-04-13T09:38:07.439Z,2.80
2023-04-13T09:40:38.448Z,2.63
2023-04-13T09:43:08.122Z,2.55
2023-04-13T09:45:44.548Z,2.53
2023-04-13T09:48:22.529Z,3.05
2023-04-13T09:51:05.526Z,2.87
2023-04-13T09:53:49.808Z,2.47
2023-04-13T09:56:17.455Z,3.10
2023-04-13T09:58:45.750Z,2.35
2023-04-13T10:01:17.135Z,3.03
2023-04-13T10:03:44.381Z,2.33
2023-04-13T10:06:11.634Z,2.30
2023-04-13T10:08:40.828Z,3.22
2023-04-13T10:11:15.128Z,2.63
2023-04-13T10:13:53.426Z,2.78
2023-04-13T10:16:36.745Z,2.50
2023-04-13T10:19:16.048Z,3.10
2023-04-13T10:21:50.334Z,2.25
2023-04-13T10:24:19.015Z,2.63
2023-04-13T10:26:46.120Z,2.42
2023-04-13T10:29:14.945Z,2.83
2023-04-13T10:31:47.003Z,2.88
2023-04-13T10:34:25.805Z,3.35
2023-04-13T10:36:56.102Z,3.70
2023-04-13T10:39:28.210Z,3.15
2023-04-13T10:42:17.257Z,3.43
2023-04-13T10:44:47.914Z,4.95
2023-04-13T10:47:20.964Z,3.65
2023-04-13T10:49:49.737Z,2.80
2023-04-13T10:52:17.341Z,3.10
2023-04-13T10:55:02.033Z,3.50
2023-04-13T10:57:47.124Z,3.22
2023-04-13T11:00:22.985Z,3.13
2023-04-13T11:02:59.280Z,2.25
2023-04-13T11:05:27.483Z,3.60
2023-04-13T11:07:55.807Z,2.57
2023-04-13T11:10:27.972Z,3.20
2023-04-13T11:12:57.248Z,3.97
2023-04-13T11:15:29.632Z,3.05
2023-04-13T11:17:58.415Z,3.45
2023-04-13T11:20:32.195Z,2.97
2023-04-13T11:23:02.405Z,3.00
2023-04-13T11:25:30.074Z,2.80
2023-04-13T11:28:01.767Z,2.42
2023-04-13T11:30:28.787Z,2.90
2023-04-13T11:33:00.000Z,2.67
2023-04-13T11:35:27.320Z,2.35
2023-04-13T11:37:56.109Z,3.03
2023-04-13T11:40:27.448Z,2.45
2023-04-13T11:42:58.850Z,2.83
2023-04-13T11:45:28.778Z,3.03
2023-04-13T11:47:57.339Z,3.38
2023-04-13T11:50:25.555Z,2.85
2023-04-13T11:52:57.335Z,3.25
2023-04-13T11:55:25.338Z,3.35
2023-04-13T11:57:53.162Z,2.57
2023-04-13T12:00:26.829Z,2.30
2023-04-13T12:05:28.608Z,3.08
2023-04-13T12:07:57.512Z,3.58
2023-04-13T12:10:38.253Z,3.43
2023-04-13T12:16:02.203Z,2.83
2023-04-13T12:18:40.043Z,2.88
2023-04-13T12:21:07.760Z,2.95
2023-04-13T12:23:37.274Z,2.83
2023-04-13T12:26:33.201Z,2.88
2023-04-13T12:28:57.926Z,3.05
2023-04-13T12:31:25.464Z,3.58
2023-04-13T12:33:54.563Z,3.20
2023-04-13T12:36:21.830Z,3.13
2023-04-13T12:38:48.806Z,3.20
2023-04-13T12:41:15.649Z,2.03
2023-04-13T12:43:42.542Z,2.50
2023-04-13T12:46:12.240Z,3.28
2023-04-13T12:48:41.429Z,2.93
2023-04-13T12:51:10.683Z,3.42
2023-04-13T12:53:37.714Z,3.00
2023-04-13T12:56:04.808Z,2.58
2023-04-13T12:58:31.755Z,2.35
2023-04-13T13:00:58.635Z,2.37
2023-04-13T13:03:25.990Z,2.80
2023-04-13T13:05:53.156Z,2.90
2023-04-13T13:08:21.473Z,2.78
2023-04-13T13:10:48.348Z,2.30
2023-04-13T13:13:17.153Z,2.57
2023-04-13T13:15:43.985Z,2.58
2023-04-13T13:18:11.428Z,2.08
2023-04-13T13:20:41.511Z,2.22
2023-04-13T13:23:15.707Z,1.92
2023-04-13T13:25:57.045Z,1.97
2023-04-13T13:28:31.817Z,2.20
2023-04-13T13:30:58.605Z,2.30
2023-04-13T13:33:25.600Z,2.38
2023-04-13T13:35:52.496Z,2.15
2023-04-13T13:38:19.282Z,2.53
2023-04-13T13:40:46.733Z,2.10
2023-04-13T13:43:13.960Z,2.45
2023-04-13T13:45:41.153Z,3.53
2023-04-13T13:48:09.492Z,3.15
2023-04-13T13:50:44.791Z,2.77
2023-04-13T13:53:12.814Z,3.38
2023-04-13T13:55:42.453Z,1.73
2023-04-13T13:58:12.159Z,2.63
2023-04-13T14:00:39.747Z,2.05
2023-04-13T14:03:07.047Z,2.83
2023-04-13T14:05:35.314Z,1.80
2023-04-13T14:08:02.125Z,2.10
2023-04-13T14:10:29.243Z,2.55
2023-04-13T14:12:57.046Z,2.45
2023-04-13T14:15:26.980Z,2.80
2023-04-13T14:18:09.018Z,2.50
2023-04-13T14:20:39.252Z,2.45
2023-04-13T14:23:12.648Z,2.60
2023-04-13T14:25:43.697Z,2.40
2023-04-13T14:28:20.445Z,2.93
2023-04-13T14:30:58.877Z,2.40
2023-04-13T15:10:22.857Z,2.50
2023-04-13T15:12:49.775Z,2.70
2023-04-13T15:15:16.673Z,2.05
2023-04-13T15:17:43.841Z,2.33
2023-04-13T15:20:12.082Z,2.47
2023-04-13T15:22:41.833Z,2.35
2023-04-13T15:25:09.033Z,2.10
2023-04-13T15:27:36.144Z,2.50
2023-04-13T15:30:04.125Z,3.03
2023-04-13T15:32:35.511Z,2.40
2023-04-13T15:35:05.992Z,2.53
2023-04-13T15:37:34.294Z,2.57
2023-04-13T15:40:01.504Z,2.22
2023-04-13T15:42:29.023Z,2.30
2023-04-13T15:44:56.486Z,2.88
2023-04-13T15:47:23.642Z,2.50
2023-04-13T15:49:50.486Z,2.53
2023-04-13T15:52:17.425Z,2.53
2023-04-13T15:54:44.234Z,2.60
2023-04-13T15:57:11.587Z,2.42
2023-04-13T15:59:38.416Z,2.90
2023-04-13T16:02:05.378Z,2.20
2023-04-13T16:04:32.837Z,3.00
2023-04-13T16:09:30.579Z,2.50
2023-04-13T16:11:57.544Z,2.50
2023-04-13T16:14:25.291Z,2.97
2023-04-13T16:17:00.129Z,2.58
2023-04-13T16:19:27.942Z,2.75
2023-04-13T16:21:54.812Z,2.70
2023-04-13T16:24:22.097Z,2.55
2023-04-13T16:26:49.075Z,1.87
2023-04-13T16:29:16.902Z,2.22
2023-04-13T16:31:46.958Z,2.47
2023-04-13T16:34:25.542Z,2.60
2023-04-13T16:36:53.434Z,3.25
2023-04-13T16:39:21.879Z,2.50
2023-04-13T16:41:48.894Z,1.88
2023-04-13T16:44:15.874Z,2.28
2023-04-13T16:46:42.824Z,2.67
2023-04-13T16:49:10.498Z,2.35
2023-04-13T16:51:37.383Z,2.00
2023-04-13T16:54:06.362Z,2.45
2023-04-13T16:56:36.363Z,2.97
2023-04-13T16:59:03.705Z,2.05
2023-04-13T17:01:31.314Z,2.47
2023-04-13T17:04:00.672Z,2.67
2023-04-13T17:06:27.732Z,2.72
2023-04-13T17:08:54.563Z,2.45
2023-04-13T17:11:22.609Z,2.80
2023-04-13T17:13:49.856Z,9.07
2023-04-13T17:16:17.318Z,4.00
2023-04-13T17:18:47.336Z,2.80
2023-04-13T17:21:14.499Z,2.70
2023-04-13T17:23:42.166Z,2.42
2023-04-13T17:26:12.466Z,2.95
2023-04-13T17:28:39.400Z,3.30
2023-04-13T17:31:09.277Z,2.30
2023-04-13T17:33:42.639Z,2.63
2023-04-13T17:36:12.710Z,2.60
2023-04-13T17:38:42.128Z,2.58
2023-04-13T17:41:12.510Z,3.60
2023-04-13T17:43:40.668Z,2.85
2023-04-13T17:46:10.997Z,2.35
2023-04-13T17:48:39.722Z,2.67
2023-04-13T17:51:12.811Z,3.70
2023-04-13T17:53:39.893Z,2.60
2023-04-13T17:56:07.544Z,2.67
2023-04-13T17:58:35.658Z,2.58
2023-04-13T18:01:13.507Z,2.70
2023-04-13T18:03:43.936Z,3.50
2023-04-13T18:06:11.355Z,2.70
2023-04-13T18:08:38.433Z,2.97
2023-04-13T18:11:07.259Z,2.90
2023-04-13T18:13:38.111Z,2.22
2023-04-13T18:16:05.881Z,2.75
2023-04-13T18:18:35.197Z,3.23
2023-04-13T18:21:02.827Z,3.05
2023-04-13T18:23:30.062Z,3.05
2023-04-13T18:25:57.211Z,3.20
2023-04-13T18:28:24.371Z,3.17
2023-04-13T18:30:51.601Z,3.43
2023-04-13T18:33:18.879Z,3.65
2023-04-13T18:35:46.645Z,2.97
2023-04-13T18:38:14.189Z,3.47
2023-04-13T18:40:41.644Z,3.15
2023-04-13T18:43:09.461Z,3.23
2023-04-13T18:45:36.601Z,3.22
2023-04-13T18:48:03.862Z,3.60
2023-04-13T18:50:31.398Z,3.47
2023-04-13T18:52:58.411Z,3.80
2023-04-13T18:55:26.956Z,4.30
2023-04-13T18:57:55.843Z,4.40
2023-04-13T19:00:23.261Z,2.97
2023-04-13T19:02:57.798Z,3.22
2023-04-13T19:05:26.556Z,3.50
2023-04-13T19:07:57.397Z,3.47
2023-04-13T19:10:25.936Z,2.67
2023-04-13T19:12:53.578Z,2.17
2023-04-13T19:15:21.464Z,2.67
2023-04-13T19:17:50.717Z,3.15
2023-04-13T19:20:18.611Z,3.07
2023-04-13T19:22:45.821Z,3.08
2023-04-13T19:25:16.325Z,3.65
2023-04-13T19:27:47.415Z,2.92
2023-04-13T19:30:16.063Z,2.95
2023-04-13T19:32:45.133Z,2.77
2023-04-13T19:35:13.314Z,2.60
2023-04-13T19:37:47.265Z,3.13
2023-04-13T19:40:18.174Z,2.72
2023-04-13T19:42:46.191Z,3.00
2023-04-13T19:45:14.486Z,3.40
2023-04-13T19:47:42.495Z,3.90
2023-04-13T19:50:12.053Z,3.03
2023-04-13T19:52:41.804Z,3.72
2023-04-13T19:55:10.588Z,2.85
2023-04-13T19:57:42.999Z,2.40
2023-04-13T20:00:20.256Z,3.35
2023-04-13T20:02:50.311Z,2.78
2023-04-13T20:05:19.430Z,3.47
2023-04-13T20:07:46.764Z,3.08
2023-04-13T20:10:15.895Z,2.93
2023-04-13T20:12:43.517Z,3.20
2023-04-13T20:15:10.966Z,2.78
2023-04-13T20:17:38.294Z,3.30
2023-04-13T20:20:11.924Z,3.53
2023-04-13T20:22:41.992Z,3.00
2023-04-13T20:25:11.839Z,2.90
2023-04-13T20:27:42.543Z,3.80
2023-04-13T20:30:13.275Z,3.33
2023-04-13T20:32:43.861Z,3.00
2023-04-13T20:35:11.967Z,2.90
2023-04-13T20:37:39.487Z,2.67
2023-04-13T20:40:07.410Z,3.13
2023-04-13T20:42:34.774Z,3.55
2023-04-13T20:45:06.253Z,3.40
2023-04-13T20:47:48.313Z,3.37
2023-04-13T20:50:21.725Z,2.83
2023-04-13T20:52:53.562Z,3.67
2023-04-13T20:55:24.563Z,3.60
2023-04-13T20:57:51.633Z,2.85
2023-04-13T21:00:21.648Z,3.63
2023-04-13T21:02:49.122Z,3.50
2023-04-13T21:05:16.458Z,3.20
2023-04-13T21:07:45.725Z,2.88
2023-04-13T21:10:15.132Z,3.38
2023-04-13T21:12:42.499Z,3.77
2023-04-13T21:15:09.869Z,3.42
2023-04-13T21:17:37.111Z,3.25
2023-04-13T21:20:06.569Z,3.53
2023-04-13T21:22:33.436Z,4.00
2023-04-13T21:25:01.281Z,3.60
2023-04-13T21:27:28.322Z,4.13
2023-04-13T21:29:55.612Z,3.00
2023-04-13T21:32:22.665Z,3.28
2023-04-13T21:34:49.733Z,3.58
2023-04-13T21:37:16.612Z,3.30
2023-04-13T21:39:43.898Z,3.47
2023-04-13T21:42:11.050Z,3.70
2023-04-13T21:44:37.942Z,3.30
2023-04-13T21:47:04.875Z,3.40
2023-04-13T21:49:31.736Z,3.20
2023-04-13T21:51:59.045Z,3.70
2023-04-13T21:54:26.217Z,3.60
2023-04-13T21:56:53.201Z,3.63
2023-04-13T21:59:20.033Z,3.85
2023-04-13T22:01:47.199Z,3.57
2023-04-13T22:04:14.342Z,3.40
2023-04-13T22:06:41.636Z,2.85
2023-04-13T22:09:08.581Z,3.60
2023-04-13T22:11:35.675Z,3.30
2023-04-13T22:14:02.605Z,3.40
2023-04-13T22:16:29.813Z,3.47
2023-04-13T22:18:56.944Z,3.63
2023-04-13T22:21:24.018Z,3.20
2023-04-13T22:23:50.877Z,3.03
2023-04-13T22:26:17.767Z,3.13
2023-04-13T22:28:45.008Z,3.17
2023-04-13T22:31:12.997Z,3.45
2023-04-13T22:33:40.527Z,3.60
2023-04-13T22:36:17.579Z,3.10
2023-04-13T22:38:44.528Z,3.60
2023-04-13T22:41:11.635Z,3.40
2023-04-13T22:43:38.647Z,3.55
2023-04-13T22:46:05.970Z,3.60
2023-04-13T22:48:32.931Z,3.92
2023-04-13T22:51:00.712Z,3.10
2023-04-13T22:53:28.006Z,3.83
2023-04-13T22:55:54.850Z,3.33
2023-04-13T22:58:21.760Z,2.92
2023-04-13T23:00:48.892Z,4.18
2023-04-13T23:03:16.124Z,3.90
2023-04-13T23:05:43.537Z,4.25
2023-04-13T23:08:10.573Z,3.80
2023-04-13T23:10:37.689Z,4.10
2023-04-13T23:13:04.809Z,3.85
2023-04-13T23:15:31.916Z,4.10
2023-04-13T23:17:58.796Z,3.70
2023-04-13T23:20:28.017Z,3.40
2023-04-13T23:22:54.866Z,3.50
2023-04-13T23:25:21.787Z,3.67
2023-04-13T23:27:48.797Z,3.87
2023-04-13T23:30:16.306Z,3.92
2023-04-13T23:32:43.233Z,4.10
2023-04-13T23:35:10.441Z,4.28
2023-04-13T23:37:37.399Z,4.20
2023-04-13T23:40:05.515Z,4.30
2023-04-13T23:42:32.495Z,3.88
2023-04-13T23:44:59.343Z,4.07
2023-04-13T23:47:26.560Z,4.18
2023-04-13T23:49:54.214Z,4.15
2023-04-13T23:52:21.848Z,4.50
2023-04-13T23:54:48.649Z,4.05
2023-04-13T23:57:15.595Z,4.85
2023-04-13T23:59:42.729Z,4.50
